Sct Zurich — V7NG2 — position and weather

sailwx.info

Track history (hours):
 
Tides and Currents Weather Stations Pressure Air Temp Water Temp Dewpoint Dewpoint Depression Visibility Wind Speed Wind Dir Waves Ship Positions

Sct Zurich

Last reported at 2015-Mar-31 04:33 UTC. Time now 2015-Mar-31 05:30 UTC.
Position S 34°46' E 138°29'.

Length 294 m; draft 11.5 m.

Type: Ship (hazmat cat D). MMSI: 538002956.

Date/timePositionNaut miles runAvg speedWind from/ knotsBaromVisibWave heightAir tempDewpointWater temp
2015-Mar-31 04:33S 34°46' E 138°29'0 0.0
2015-Mar-31 03:33S 34°46' E 138°29'0 0.0
2015-Mar-31 02:33S 34°46' E 138°29'0 0.0
2015-Mar-31 01:33S 34°46' E 138°29'0 0.0
2015-Mar-31 00:26S 34°46' E 138°29'0 0.0
2015-Mar-30 23:06S 34°46' E 138°29'0 0.0
2015-Mar-30 22:29S 34°46' E 138°29'0 0.0
2015-Mar-30 20:22S 34°46' E 138°29'0 0.0
2015-Mar-30 19:21S 34°46' E 138°29'0 0.0
2015-Mar-30 18:19S 34°46' E 138°29'0 0.1
2015-Mar-30 16:33S 34°46' E 138°29'7 7.0
2015-Mar-30 15:33S 34°48' E 138°21'1010.2
2015-Mar-30 14:34S 34°57' E 138°16'1514.9
2015-Mar-30 13:34S 35°11' E 138°09'1514.9
2015-Mar-30 12:34S 35°25' E 138°02'1514.6
2015-Mar-30 11:33S 35°40' E 138°01'1616.3
2015-Mar-30 10:33S 35°51' E 138°16'  
2015-Mar-27 12:32S 38°26' E 148°45'1313.3
2015-Mar-27 11:33S 38°19' E 148°59'  
2015-Mar-23 22:28S 34°02' E 151°29'27 7.0
2015-Mar-23 18:33S 34°28' E 151°18'229 8.5
2015-Mar-22 15:33S 38°02' E 149°38'1411.5
2015-Mar-22 14:22S 38°10' E 149°24'1011.5
2015-Mar-22 13:32S 38°15' E 149°13'1411.7
2015-Mar-22 12:21S 38°23' E 148°59'1211.9
2015-Mar-22 11:21S 38°30' E 148°47'1111.7
2015-Mar-22 10:23S 38°37' E 148°35'1012.2
2015-Mar-22 09:33S 38°42' E 148°24'1312.7
2015-Mar-22 08:34S 38°48' E 148°10'1313.3
2015-Mar-22 07:34S 38°53' E 147°54'1413.9
2015-Mar-22 06:33S 38°58' E 147°37'1413.8
2015-Mar-22 05:33S 39°02' E 147°20'1313.3
2015-Mar-22 04:33S 39°07' E 147°04'1312.7
2015-Mar-22 03:33S 39°12' E 146°49'1212.5
2015-Mar-22 02:33S 39°16' E 146°34'1212.1
2015-Mar-22 01:33S 39°17' E 146°18'1212.1
2015-Mar-22 00:33S 39°13' E 146°03'1312.9
2015-Mar-21 23:33S 39°07' E 145°49'1313.4
2015-Mar-21 22:33S 38°60' E 145°34'  
Track history (hours):
 
Tides and Currents Weather Stations Pressure Air Temp Water Temp Dewpoint Dewpoint Depression Visibility Wind Speed Wind Dir Waves Ship Positions

Sct Zurich

Last reported at 2015-Mar-31 04:33 UTC. Time now 2015-Mar-31 05:30 UTC.
Position S 34°46' E 138°29'.

Length 294 m; draft 11.5 m.

Type: Ship (hazmat cat D). MMSI: 538002956.

Date/timePositionNaut miles runAvg speedWind from/ knotsBaromVisibWave heightAir tempDewpointWater temp
2015-Mar-31 04:33S 34°46' E 138°29'0 0.0
2015-Mar-31 03:33S 34°46' E 138°29'0 0.0
2015-Mar-31 02:33S 34°46' E 138°29'0 0.0
2015-Mar-31 01:33S 34°46' E 138°29'0 0.0
2015-Mar-31 00:26S 34°46' E 138°29'0 0.0
2015-Mar-30 23:06S 34°46' E 138°29'0 0.0
2015-Mar-30 22:29S 34°46' E 138°29'0 0.0
2015-Mar-30 20:22S 34°46' E 138°29'0 0.0
2015-Mar-30 19:21S 34°46' E 138°29'0 0.0
2015-Mar-30 18:19S 34°46' E 138°29'0 0.1
2015-Mar-30 16:33S 34°46' E 138°29'7 7.0
2015-Mar-30 15:33S 34°48' E 138°21'1010.2
2015-Mar-30 14:34S 34°57' E 138°16'1514.9
2015-Mar-30 13:34S 35°11' E 138°09'1514.9
2015-Mar-30 12:34S 35°25' E 138°02'1514.6
2015-Mar-30 11:33S 35°40' E 138°01'1616.3
2015-Mar-30 10:33S 35°51' E 138°16'  
2015-Mar-27 12:32S 38°26' E 148°45'1313.3
2015-Mar-27 11:33S 38°19' E 148°59'  
2015-Mar-23 22:28S 34°02' E 151°29'27 7.0
2015-Mar-23 18:33S 34°28' E 151°18'229 8.5
2015-Mar-22 15:33S 38°02' E 149°38'1411.5
2015-Mar-22 14:22S 38°10' E 149°24'1011.5
2015-Mar-22 13:32S 38°15' E 149°13'1411.7
2015-Mar-22 12:21S 38°23' E 148°59'1211.9
2015-Mar-22 11:21S 38°30' E 148°47'1111.7
2015-Mar-22 10:23S 38°37' E 148°35'1012.2
2015-Mar-22 09:33S 38°42' E 148°24'1312.7
2015-Mar-22 08:34S 38°48' E 148°10'1313.3
2015-Mar-22 07:34S 38°53' E 147°54'1413.9
2015-Mar-22 06:33S 38°58' E 147°37'1413.8
2015-Mar-22 05:33S 39°02' E 147°20'1313.3
2015-Mar-22 04:33S 39°07' E 147°04'1312.7
2015-Mar-22 03:33S 39°12' E 146°49'1212.5
2015-Mar-22 02:33S 39°16' E 146°34'1212.1
2015-Mar-22 01:33S 39°17' E 146°18'1212.1
2015-Mar-22 00:33S 39°13' E 146°03'1312.9
2015-Mar-21 23:33S 39°07' E 145°49'1313.4
2015-Mar-21 22:33S 38°60' E 145°34'  

Dump ship's entire track history